Time;durP1;ratioP1;P1;durP2;ratioP2;P2;SDS_P1;SDS_P2;PMS_P1;PMS_P2;Temp;Humidity;BMP_temperature;BMP_pressure;BME280_temperature;BME280_humidity;BME280_pressure;Samples;Min_cycle;Max_cycle;Signal;HPM_P1;HPM_P2
2021/04/12 00:01:19;;;;;;;3.97;1.20;;;3.90;99.90;;;;;;5048801;28;20543;-55
2021/04/12 00:03:52;;;;;;;3.13;1.10;;;3.90;99.90;;;;;;5028376;28;20478;-52
2021/04/12 00:06:23;;;;;;;3.17;0.93;;;3.90;99.90;;;;;;5027810;28;20855;-54
2021/04/12 00:08:59;;;;;;;2.50;0.80;;;3.90;99.90;;;;;;5030134;28;20619;-51
2021/04/12 00:11:34;;;;;;;5.47;1.30;;;3.90;99.90;;;;;;5028703;28;20486;-51
2021/04/12 00:14:10;;;;;;;3.33;0.90;;;3.90;99.90;;;;;;5029376;28;20897;-51
2021/04/12 00:16:43;;;;;;;2.93;0.97;;;3.90;99.90;;;;;;5029932;28;20544;-53
2021/04/12 00:19:20;;;;;;;1.70;0.93;;;3.90;99.90;;;;;;5049223;28;20561;-53
2021/04/12 00:21:52;;;;;;;2.83;1.00;;;3.90;99.90;;;;;;5031106;28;20481;-53
2021/04/12 00:24:26;;;;;;;3.40;1.10;;;3.80;99.90;;;;;;5010253;28;20613;-51
2021/04/12 00:27:02;;;;;;;2.80;1.13;;;3.80;99.90;;;;;;5010087;28;20483;-51
2021/04/12 00:29:37;;;;;;;6.10;1.67;;;3.80;99.90;;;;;;5009531;28;20483;-51
2021/04/12 00:32:12;;;;;;;5.83;1.10;;;3.80;99.90;;;;;;5008482;28;20540;-51
2021/04/12 00:34:50;;;;;;;4.70;1.07;;;3.90;99.90;;;;;;5009786;28;20830;-53
2021/04/12 00:37:24;;;;;;;9.83;1.57;;;3.90;99.90;;;;;;5009923;28;20504;-51
2021/04/12 00:39:59;;;;;;;3.23;1.23;;;4.00;99.90;;;;;;5009234;28;20492;-52
2021/04/12 00:43:03;;;;;;;2.53;1.20;;;3.90;99.90;;;;;;5009062;28;20487;-51
2021/04/12 00:45:38;;;;;;;2.93;1.00;;;3.90;99.90;;;;;;5009280;28;20490;-53
2021/04/12 00:48:51;;;;;;;2.33;1.20;;;3.90;99.90;;;;;;5029877;28;20496;-52
2021/04/12 00:51:47;;;;;;;4.77;1.30;;;3.90;99.90;;;;;;4991825;28;20527;-51
2021/04/12 00:54:45;;;;;;;4.70;1.40;;;3.70;99.90;;;;;;5046516;28;20482;-51
2021/04/12 00:57:32;;;;;;;7.47;1.60;;;3.70;99.90;;;;;;5039820;28;20487;-51
2021/04/12 01:00:09;;;;;;;3.90;1.70;;;3.60;99.90;;;;;;5005410;28;20467;-51
2021/04/12 01:02:57;;;;;;;4.60;1.00;;;3.60;99.90;;;;;;5004300;28;20479;-51
2021/04/12 01:05:42;;;;;;;4.67;1.30;;;3.50;99.90;;;;;;5014332;28;20487;-51
2021/04/12 01:09:03;;;;;;;4.47;1.30;;;3.50;99.90;;;;;;5028557;28;20486;-52
2021/04/12 01:12:16;;;;;;;2.63;1.10;;;3.40;99.90;;;;;;5027809;28;20509;-53
2021/04/12 01:15:10;;;;;;;2.93;1.30;;;3.40;99.90;;;;;;5028827;28;20634;-53
2021/04/12 01:17:53;;;;;;;4.80;1.27;;;3.40;99.90;;;;;;5034555;28;20473;-51
2021/04/12 01:21:06;;;;;;;4.63;1.13;;;3.40;99.90;;;;;;5047940;28;20530;-51
2021/04/12 01:24:33;;;;;;;5.20;1.30;;;3.40;99.90;;;;;;5036538;28;20545;-54
2021/04/12 01:27:56;;;;;;;3.30;1.30;;;3.60;99.90;;;;;;5027157;28;20573;-53
2021/04/12 01:30:44;;;;;;;3.80;1.10;;;3.50;99.90;;;;;;5027665;28;20506;-51
2021/04/12 01:34:21;;;;;;;4.77;1.30;;;3.60;99.90;;;;;;5028171;28;20485;-52
2021/04/12 01:37:12;;;;;;;5.33;1.23;;;3.60;99.90;;;;;;4993037;28;20475;-50
2021/04/12 01:39:57;;;;;;;5.77;1.47;;;3.60;99.90;;;;;;5027769;28;20476;-51
2021/04/12 01:42:48;;;;;;;3.77;1.30;;;3.60;99.90;;;;;;5027547;28;20545;-52
2021/04/12 01:45:29;;;;;;;9.10;1.67;;;3.60;99.90;;;;;;5027762;28;20915;-52
2021/04/12 01:48:21;;;;;;;3.77;1.00;;;3.60;99.90;;;;;;5028682;28;20495;-53
2021/04/12 01:51:16;;;;;;;4.93;1.30;;;3.60;99.90;;;;;;5027024;28;20547;-51
2021/04/12 01:54:25;;;;;;;3.67;1.10;;;3.50;99.90;;;;;;5028820;28;20517;-52
2021/04/12 01:57:40;;;;;;;3.27;1.10;;;3.60;99.90;;;;;;5024162;28;20888;-53
2021/04/12 02:00:50;;;;;;;4.07;1.30;;;3.50;99.90;;;;;;5012598;28;20474;-51
2021/04/12 02:03:33;;;;;;;4.63;1.20;;;3.50;99.90;;;;;;5027263;28;20514;-54
2021/04/12 02:06:44;;;;;;;6.60;1.30;;;3.50;99.90;;;;;;5026373;28;20482;-52
2021/04/12 02:09:45;;;;;;;5.63;1.10;;;3.60;99.90;;;;;;5020889;28;21194;-52
2021/04/12 02:12:51;;;;;;;4.37;1.20;;;3.50;99.90;;;;;;5027214;28;21045;-51
2021/04/12 02:15:28;;;;;;;3.53;1.23;;;3.50;99.90;;;;;;5027990;28;20514;-52
2021/04/12 02:18:44;;;;;;;3.67;1.33;;;3.40;99.90;;;;;;5026755;28;20497;-52
2021/04/12 02:21:24;;;;;;;3.03;1.10;;;3.40;99.90;;;;;;5026749;28;20476;-51
2021/04/12 02:24:07;;;;;;;3.93;1.00;;;3.40;99.90;;;;;;5027437;28;20971;-54
2021/04/12 02:26:54;;;;;;;2.53;1.07;;;3.40;99.90;;;;;;5044028;28;20532;-50
2021/04/12 02:29:33;;;;;;;4.67;1.47;;;3.40;99.90;;;;;;5047688;28;20477;-52
2021/04/12 02:32:18;;;;;;;6.90;1.40;;;3.30;99.90;;;;;;5045476;28;21083;-52
2021/04/12 02:34:57;;;;;;;4.30;1.13;;;3.30;99.90;;;;;;5047284;28;20488;-51
2021/04/12 02:37:45;;;;;;;2.13;1.33;;;3.30;99.90;;;;;;5047749;28;20481;-53
2021/04/12 02:40:47;;;;;;;4.43;1.73;;;3.30;99.90;;;;;;5046839;28;20563;-52
2021/04/12 02:43:27;;;;;;;6.47;1.63;;;3.30;99.90;;;;;;5044708;28;20474;-52
2021/04/12 02:46:17;;;;;;;5.47;1.60;;;3.20;99.90;;;;;;5047492;28;20472;-52
2021/04/12 02:48:59;;;;;;;7.27;1.63;;;3.20;99.90;;;;;;5046303;28;20480;-52
2021/04/12 02:51:40;;;;;;;2.77;1.83;;;3.20;99.90;;;;;;5046732;28;20485;-51
2021/04/12 02:54:34;;;;;;;3.43;1.93;;;3.20;99.90;;;;;;5032705;28;20479;-50
2021/04/12 02:57:24;;;;;;;7.83;2.27;;;3.20;99.90;;;;;;5018459;28;20511;-52
2021/04/12 03:00:16;;;;;;;7.50;2.50;;;3.20;99.90;;;;;;5026805;28;20564;-51
2021/04/12 03:03:25;;;;;;;7.20;1.90;;;3.10;99.90;;;;;;5019277;28;20861;-51
2021/04/12 03:06:29;;;;;;;6.47;2.30;;;3.10;99.90;;;;;;5027966;28;20470;-52
2021/04/12 03:09:42;;;;;;;4.93;2.07;;;3.10;99.90;;;;;;5027450;28;20477;-52
2021/04/12 03:13:01;;;;;;;6.57;2.20;;;3.10;99.90;;;;;;5024077;28;20496;-52
2021/04/12 03:15:46;;;;;;;2.93;2.00;;;3.00;99.90;;;;;;5034231;28;20540;-52
2021/04/12 03:18:59;;;;;;;4.80;2.13;;;3.10;99.90;;;;;;5045744;28;20559;-52
2021/04/12 03:22:10;;;;;;;6.30;2.00;;;3.10;99.90;;;;;;5033561;28;20475;-50
2021/04/12 03:24:52;;;;;;;4.97;1.90;;;3.10;99.90;;;;;;5038242;28;20478;-53
2021/04/12 03:27:44;;;;;;;7.10;2.40;;;3.10;99.90;;;;;;5007413;28;20560;-51
2021/04/12 03:30:39;;;;;;;5.50;2.30;;;3.00;99.90;;;;;;5010959;28;20488;-54
2021/04/12 03:33:38;;;;;;;5.33;1.83;;;3.00;99.90;;;;;;4987053;28;20477;-52
2021/04/12 03:36:22;;;;;;;5.47;1.90;;;3.00;99.90;;;;;;5003022;28;20483;-51
2021/04/12 03:39:18;;;;;;;3.27;1.80;;;3.00;99.90;;;;;;4987751;28;20490;-51
2021/04/12 03:42:54;;;;;;;8.23;1.53;;;3.10;99.90;;;;;;4988938;28;20498;-52
2021/04/12 03:45:43;;;;;;;5.93;2.10;;;3.00;99.90;;;;;;4988911;28;20600;-52
2021/04/12 03:48:34;;;;;;;4.13;2.23;;;3.00;99.90;;;;;;5005349;28;20880;-51
2021/04/12 03:52:02;;;;;;;5.23;2.20;;;3.00;99.90;;;;;;5008973;28;20554;-52
2021/04/12 03:55:25;;;;;;;7.57;2.10;;;3.00;99.90;;;;;;4943119;28;20620;-52
2021/04/12 03:58:13;;;;;;;5.80;2.00;;;3.00;99.90;;;;;;4950222;28;20481;-50
2021/04/12 04:01:32;;;;;;;4.40;1.97;;;3.00;99.90;;;;;;4989124;28;20483;-53
2021/04/12 04:04:52;;;;;;;6.57;2.00;;;3.00;99.90;;;;;;4958135;28;20548;-51
2021/04/12 04:08:05;;;;;;;5.80;2.13;;;3.00;99.90;;;;;;4990507;28;20481;-50
2021/04/12 04:11:16;;;;;;;8.63;2.30;;;3.00;99.90;;;;;;4962420;28;20507;-52
2021/04/12 04:14:07;;;;;;;5.17;2.13;;;2.90;99.90;;;;;;4996716;28;20481;-51
2021/04/12 04:16:51;;;;;;;5.97;2.20;;;2.90;99.90;;;;;;4990095;28;20479;-55
2021/04/12 04:19:51;;;;;;;7.80;2.27;;;2.90;99.90;;;;;;4990543;28;20989;-53
2021/04/12 04:22:45;;;;;;;8.10;2.17;;;3.00;99.90;;;;;;4989451;28;20537;-54
2021/04/12 04:25:36;;;;;;;5.60;2.10;;;2.90;99.90;;;;;;4990421;28;20952;-51
2021/04/12 04:28:27;;;;;;;4.67;2.33;;;3.00;99.90;;;;;;4990121;28;20754;-53
2021/04/12 04:31:53;;;;;;;4.90;2.10;;;3.00;99.90;;;;;;4994670;28;20483;-50
2021/04/12 04:34:30;;;;;;;5.87;2.00;;;3.00;99.90;;;;;;5029595;28;20483;-50
2021/04/12 04:37:23;;;;;;;3.33;1.90;;;2.90;99.90;;;;;;5029763;28;20738;-53
2021/04/12 04:40:27;;;;;;;5.07;2.17;;;2.90;99.90;;;;;;5028743;28;20485;-55
2021/04/12 04:43:24;;;;;;;4.53;1.77;;;2.90;99.90;;;;;;5022651;28;20481;-54
2021/04/12 04:46:16;;;;;;;4.97;2.07;;;2.90;99.90;;;;;;5030752;28;20481;-51
2021/04/12 04:49:34;;;;;;;6.93;1.90;;;2.90;99.90;;;;;;5029984;28;20485;-55
2021/04/12 04:52:31;;;;;;;7.53;2.20;;;2.90;99.90;;;;;;5021040;28;20489;-52
2021/04/12 04:55:40;;;;;;;6.33;2.67;;;2.90;99.90;;;;;;5026706;28;20548;-55
2021/04/12 04:58:19;;;;;;;5.63;2.33;;;2.90;99.90;;;;;;4978469;28;20566;-51
2021/04/12 05:01:05;;;;;;;7.77;2.67;;;2.90;99.90;;;;;;5017064;28;20477;-51
2021/04/12 05:04:09;;;;;;;6.27;2.13;;;3.00;99.90;;;;;;5029148;28;20483;-52
2021/04/12 05:07:15;;;;;;;6.43;2.13;;;3.00;99.90;;;;;;5029035;28;20760;-53
2021/04/12 05:10:05;;;;;;;4.37;2.30;;;3.10;99.90;;;;;;5010580;28;20549;-53
2021/04/12 05:12:56;;;;;;;5.47;2.23;;;3.20;99.90;;;;;;5021588;28;20477;-53
2021/04/12 05:16:14;;;;;;;6.73;2.40;;;3.20;99.90;;;;;;5026373;28;20868;-50
2021/04/12 05:19:17;;;;;;;7.40;2.47;;;3.20;99.90;;;;;;5027868;28;20559;-54
2021/04/12 05:22:18;;;;;;;5.43;2.50;;;3.30;99.90;;;;;;5027884;28;21001;-52
2021/04/12 05:25:00;;;;;;;5.73;2.40;;;3.40;99.90;;;;;;5044762;28;20830;-52
2021/04/12 05:27:48;;;;;;;5.20;2.10;;;3.30;99.90;;;;;;5041357;28;20556;-52
2021/04/12 05:30:37;;;;;;;10.37;2.80;;;3.30;99.90;;;;;;5007488;28;20878;-55
2021/04/12 05:33:22;;;;;;;5.70;2.60;;;3.30;99.90;;;;;;5014606;28;20491;-53
2021/04/12 05:36:25;;;;;;;6.90;2.53;;;3.50;99.90;;;;;;5026867;28;21013;-52
2021/04/12 05:39:26;;;;;;;6.23;2.70;;;3.50;99.90;;;;;;5001228;28;20909;-54
2021/04/12 05:42:23;;;;;;;4.73;2.50;;;3.60;99.90;;;;;;5021070;28;20458;-51
2021/04/12 05:45:40;;;;;;;4.47;2.13;;;3.60;99.90;;;;;;5033667;28;20573;-52
2021/04/12 05:48:32;;;;;;;5.87;2.10;;;3.50;99.90;;;;;;5024324;28;20989;-52
2021/04/12 05:51:21;;;;;;;6.70;2.30;;;3.50;99.90;;;;;;5022793;28;20457;-55
2021/04/12 05:54:34;;;;;;;6.67;2.33;;;3.60;99.90;;;;;;5020861;28;20482;-53
2021/04/12 05:57:38;;;;;;;6.67;2.50;;;3.70;99.90;;;;;;5026428;28;20515;-52
2021/04/12 06:00:37;;;;;;;6.27;2.33;;;3.70;99.90;;;;;;5024086;28;20481;-51
2021/04/12 06:03:22;;;;;;;5.00;2.20;;;3.80;99.90;;;;;;5028890;28;20551;-55
2021/04/12 06:06:30;;;;;;;4.83;2.30;;;3.90;99.90;;;;;;5047585;28;20935;-52
2021/04/12 06:09:23;;;;;;;5.80;2.20;;;3.90;99.90;;;;;;5043698;28;20470;-53
2021/04/12 06:12:53;;;;;;;3.93;1.97;;;3.90;99.90;;;;;;5046331;28;21023;-55
2021/04/12 06:16:16;;;;;;;5.00;2.03;;;3.90;99.90;;;;;;4975327;28;20535;-51
2021/04/12 06:19:05;;;;;;;5.90;2.40;;;3.90;99.90;;;;;;4979920;28;20854;-52
2021/04/12 06:22:27;;;;;;;5.03;2.17;;;4.10;99.90;;;;;;5006501;28;20864;-52
2021/04/12 06:25:39;;;;;;;6.47;2.70;;;4.20;99.90;;;;;;5008123;28;20558;-51
2021/04/12 06:28:51;;;;;;;5.80;2.20;;;4.40;99.90;;;;;;5031084;28;20484;-53
2021/04/12 06:32:18;;;;;;;5.60;2.37;;;4.50;99.90;;;;;;5046046;28;20565;-51
2021/04/12 06:35:17;;;;;;;7.37;2.40;;;4.60;99.90;;;;;;5007552;28;20536;-54
2021/04/12 06:38:45;;;;;;;7.00;2.83;;;4.60;99.90;;;;;;5017070;28;20896;-52
2021/04/12 06:42:04;;;;;;;4.13;2.23;;;4.70;99.90;;;;;;4986199;28;20906;-52
2021/04/12 06:45:20;;;;;;;6.10;2.37;;;4.90;99.90;;;;;;5046913;28;20497;-51
2021/04/12 06:49:05;;;;;;;5.93;2.60;;;5.10;99.90;;;;;;5010048;28;21072;-53
2021/04/12 06:52:32;;;;;;;5.50;2.43;;;5.40;99.90;;;;;;5023830;28;20467;-51
2021/04/12 06:55:18;;;;;;;6.40;2.50;;;5.80;99.90;;;;;;5041937;28;20548;-51
2021/04/12 06:58:58;;;;;;;6.83;2.57;;;6.00;99.90;;;;;;5046084;28;20583;-53
2021/04/12 07:02:10;;;;;;;4.50;2.60;;;6.10;99.90;;;;;;4964167;28;20602;-53
2021/04/12 07:05:27;;;;;;;5.07;2.27;;;6.50;99.90;;;;;;5006733;28;21015;-52
2021/04/12 07:08:22;;;;;;;6.50;2.43;;;6.60;99.90;;;;;;5026184;28;20256;-52
2021/04/12 07:11:42;;;;;;;3.73;2.03;;;6.80;99.90;;;;;;5027624;28;20610;-53
2021/04/12 07:14:58;;;;;;;4.87;2.20;;;6.90;99.90;;;;;;5030256;28;20306;-55
2021/04/12 07:18:04;;;;;;;4.60;2.23;;;6.90;99.90;;;;;;5029493;28;20239;-56
2021/04/12 07:20:50;;;;;;;8.30;2.27;;;7.10;99.90;;;;;;4992304;28;20252;-51
2021/04/12 07:24:06;;;;;;;6.47;2.33;;;7.50;99.90;;;;;;5009927;28;20284;-51
2021/04/12 07:27:16;;;;;;;4.23;2.00;;;7.70;99.90;;;;;;5010722;28;20319;-53
2021/04/12 07:30:52;;;;;;;9.07;2.90;;;7.80;99.90;;;;;;5001804;28;20239;-52
2021/04/12 07:33:59;;;;;;;5.00;1.97;;;7.90;99.90;;;;;;5025366;28;20708;-55
2021/04/12 07:37:03;;;;;;;6.83;2.20;;;8.20;99.90;;;;;;5017954;28;20251;-51
2021/04/12 07:40:53;;;;;;;5.60;2.10;;;8.50;99.90;;;;;;5027742;28;20777;-52
2021/04/12 07:44:29;;;;;;;5.37;1.90;;;8.70;99.90;;;;;;5027233;28;20848;-53
2021/04/12 07:47:59;;;;;;;5.77;2.07;;;8.90;99.90;;;;;;4956876;28;20808;-55
2021/04/12 07:51:29;;;;;;;5.23;1.87;;;9.20;99.90;;;;;;4924211;28;20231;-51
2021/04/12 07:55:12;;;;;;;8.47;1.70;;;9.30;99.90;;;;;;5019585;28;20255;-55
2021/04/12 07:58:34;;;;;;;6.70;1.90;;;9.40;99.90;;;;;;5025995;28;20298;-55
2021/04/12 08:01:54;;;;;;;5.17;1.83;;;9.60;99.90;;;;;;5027121;28;20251;-56
2021/04/12 08:05:11;;;;;;;4.83;1.77;;;9.40;99.90;;;;;;5039983;28;20251;-55
2021/04/12 08:08:27;;;;;;;6.13;1.67;;;9.00;99.90;;;;;;5048122;28;20650;-53
2021/04/12 08:11:44;;;;;;;6.50;1.50;;;8.80;99.90;;;;;;5031707;28;20684;-54
2021/04/12 08:15:10;;;;;;;5.40;1.60;;;8.60;99.90;;;;;;5043955;28;20236;-53
2021/04/12 08:18:38;;;;;;;5.67;1.63;;;9.10;99.90;;;;;;5006860;28;20283;-50
2021/04/12 08:21:55;;;;;;;4.80;1.43;;;9.10;99.90;;;;;;5038928;28;20253;-55
2021/04/12 08:24:47;;;;;;;4.17;1.20;;;9.50;99.90;;;;;;5001994;28;20232;-52
2021/04/12 08:28:39;;;;;;;6.23;1.23;;;9.70;99.90;;;;;;5028490;28;20248;-52
2021/04/12 08:32:12;;;;;;;7.73;1.50;;;9.90;99.90;;;;;;5021900;28;20239;-54
2021/04/12 08:35:35;;;;;;;7.77;1.50;;;9.10;99.90;;;;;;5024464;28;20696;-52
2021/04/12 08:38:50;;;;;;;5.03;1.50;;;9.30;99.90;;;;;;5020922;28;20230;-52
2021/04/12 08:41:46;;;;;;;5.70;1.27;;;9.20;99.90;;;;;;5024955;28;20247;-56
2021/04/12 08:44:41;;;;;;;6.70;1.47;;;9.00;99.90;;;;;;5030167;28;20286;-51
2021/04/12 08:47:44;;;;;;;2.60;1.30;;;9.20;99.90;;;;;;5029180;28;20575;-53
2021/04/12 08:50:35;;;;;;;4.97;1.63;;;9.40;99.90;;;;;;5032138;28;20240;-53
2021/04/12 08:53:52;;;;;;;5.33;1.50;;;9.20;99.90;;;;;;5039759;28;20656;-53
2021/04/12 08:57:22;;;;;;;3.67;1.30;;;9.00;99.90;;;;;;5025432;28;20260;-53
2021/04/12 09:00:49;;;;;;;6.30;1.30;;;8.90;99.90;;;;;;4977698;28;20240;-53
2021/04/12 09:04:14;;;;;;;8.50;1.30;;;9.10;99.90;;;;;;5024605;28;20233;-55
2021/04/12 09:07:25;;;;;;;2.97;1.10;;;9.80;99.90;;;;;;5032670;28;20325;-54
2021/04/12 09:10:24;;;;;;;2.13;0.93;;;10.50;99.90;;;;;;5021650;28;20242;-52
2021/04/12 09:13:57;;;;;;;2.80;1.10;;;11.10;99.90;;;;;;5028493;28;20294;-56
2021/04/12 09:16:43;;;;;;;3.10;1.23;;;10.40;99.90;;;;;;5028172;28;20294;-54
2021/04/12 09:19:57;;;;;;;3.63;1.40;;;10.40;99.90;;;;;;5028741;28;20236;-54
2021/04/12 09:23:14;;;;;;;3.67;1.20;;;9.70;99.90;;;;;;5028179;28;20236;-55
2021/04/12 09:26:40;;;;;;;4.90;1.20;;;9.60;99.90;;;;;;5027859;28;20233;-55
2021/04/12 09:29:36;;;;;;;4.03;1.20;;;9.90;99.90;;;;;;5028716;28;20311;-55
2021/04/12 09:32:47;;;;;;;1.77;0.80;;;9.70;99.90;;;;;;5026972;28;20248;-55
2021/04/12 09:36:02;;;;;;;4.97;1.07;;;10.00;99.90;;;;;;5028321;28;20241;-51
2021/04/12 09:39:18;;;;;;;3.57;0.90;;;10.10;99.90;;;;;;4986070;28;20307;-52
2021/04/12 09:42:30;;;;;;;3.97;1.00;;;10.30;99.90;;;;;;5024873;28;20239;-51
2021/04/12 09:46:09;;;;;;;3.43;1.00;;;9.60;99.90;;;;;;5017173;28;20596;-55
2021/04/12 09:49:24;;;;;;;2.37;0.93;;;9.10;99.90;;;;;;4944012;28;20312;-54
2021/04/12 09:52:25;;;;;;;3.37;0.90;;;8.90;99.90;;;;;;4989192;28;22307;-54
2021/04/12 09:55:44;;;;;;;3.30;1.00;;;9.20;99.90;;;;;;5008499;28;20554;-53
2021/04/12 09:59:06;;;;;;;3.17;0.80;;;10.10;99.90;;;;;;5013356;28;20288;-52
2021/04/12 10:02:23;;;;;;;4.33;0.90;;;10.50;99.90;;;;;;5025428;28;20288;-53
2021/04/12 10:05:06;;;;;;;2.67;0.80;;;9.80;99.90;;;;;;5027458;28;20682;-51
2021/04/12 10:08:04;;;;;;;2.30;0.70;;;9.30;99.90;;;;;;5027138;28;20262;-53
2021/04/12 10:10:45;;;;;;;2.13;0.70;;;8.70;99.90;;;;;;5023239;28;20259;-54
2021/04/12 10:13:22;;;;;;;2.17;0.70;;;8.50;99.90;;;;;;5024359;28;20237;-52
2021/04/12 10:16:12;;;;;;;1.87;1.00;;;8.20;99.90;;;;;;5024001;28;20282;-51
2021/04/12 10:18:48;;;;;;;0.90;0.63;;;8.20;99.90;;;;;;5024126;28;20264;-54
2021/04/12 10:21:28;;;;;;;1.63;0.70;;;8.50;99.90;;;;;;5020058;28;20319;-52
2021/04/12 10:24:13;;;;;;;1.70;0.80;;;9.10;99.90;;;;;;5017298;28;20248;-53
2021/04/12 10:26:45;;;;;;;2.20;0.70;;;9.90;99.90;;;;;;5030762;28;20370;-53
2021/04/12 10:29:18;;;;;;;1.37;0.70;;;9.80;99.90;;;;;;5027457;28;20753;-52
2021/04/12 10:31:54;;;;;;;1.73;0.70;;;9.10;99.90;;;;;;5019555;28;20364;-51
2021/04/12 10:34:27;;;;;;;2.60;0.70;;;8.80;99.90;;;;;;5028900;28;20261;-52
2021/04/12 10:37:29;;;;;;;2.00;0.67;;;8.50;99.90;;;;;;5019051;28;20239;-53
2021/04/12 10:40:08;;;;;;;3.70;0.80;;;8.20;99.90;;;;;;4988185;28;20239;-54
2021/04/12 10:42:45;;;;;;;2.00;0.80;;;8.50;99.90;;;;;;5026429;28;20700;-51
2021/04/12 10:45:18;;;;;;;4.50;0.90;;;9.30;99.90;;;;;;5031532;28;20241;-52
2021/04/12 10:47:58;;;;;;;2.23;0.63;;;10.00;99.90;;;;;;5019199;28;20314;-52
2021/04/12 10:50:36;;;;;;;2.63;0.80;;;10.40;99.90;;;;;;5026693;28;20775;-54
2021/04/12 10:54:13;;;;;;;2.20;1.07;;;10.90;99.90;;;;;;5028065;28;20328;-54
2021/04/12 10:56:44;;;;;;;0.80;0.70;;;11.40;99.90;;;;;;4969500;28;20318;-51
2021/04/12 10:59:50;;;;;;;3.07;0.93;;;11.20;99.90;;;;;;4968024;28;20253;-52
2021/04/12 11:02:23;;;;;;;1.20;0.60;;;11.00;99.90;;;;;;5021759;28;20683;-51
2021/04/12 11:05:00;;;;;;;2.03;0.83;;;10.30;99.90;;;;;;5027377;28;20237;-54
2021/04/12 11:08:02;;;;;;;2.57;0.83;;;10.00;99.90;;;;;;5029958;28;20316;-53
2021/04/12 11:10:44;;;;;;;1.83;0.70;;;9.90;99.90;;;;;;5035637;28;20306;-54
2021/04/12 11:13:23;;;;;;;2.63;0.83;;;9.50;99.90;;;;;;5012553;28;20237;-56
2021/04/12 11:16:05;;;;;;;2.30;0.83;;;9.40;99.90;;;;;;5027695;28;20266;-53
2021/04/12 11:18:41;;;;;;;2.10;0.70;;;9.40;99.90;;;;;;5029948;28;20295;-55
2021/04/12 11:21:23;;;;;;;2.33;0.60;;;10.10;99.90;;;;;;5029384;28;20737;-55
2021/04/12 11:24:18;;;;;;;3.10;0.90;;;11.10;99.90;;;;;;5029879;28;20241;-55
2021/04/12 11:27:39;;;;;;;2.77;0.70;;;10.90;99.90;;;;;;5046078;28;20236;-54
2021/04/12 11:30:17;;;;;;;3.60;0.80;;;11.40;99.90;;;;;;5031569;28;20233;-56
2021/04/12 11:33:02;;;;;;;2.20;0.67;;;11.70;99.90;;;;;;5025982;28;20231;-51
2021/04/12 11:35:40;;;;;;;0.80;0.63;;;12.30;99.90;;;;;;5025587;28;20517;-53
2021/04/12 11:38:13;;;;;;;2.10;0.50;;;12.70;99.90;;;;;;5027679;28;20879;-54
2021/04/12 11:40:52;;;;;;;1.37;0.70;;;12.90;99.90;;;;;;5028838;28;20384;-53
2021/04/12 11:43:27;;;;;;;1.37;0.60;;;13.10;99.90;;;;;;5035977;28;20288;-55
2021/04/12 11:46:07;;;;;;;2.10;0.80;;;13.30;99.90;;;;;;5029433;28;20540;-53
2021/04/12 11:48:50;;;;;;;2.67;0.60;;;13.10;99.90;;;;;;5029098;28;20647;-54
2021/04/12 11:51:37;;;;;;;3.10;1.20;;;13.30;99.90;;;;;;5025728;28;20326;-51
2021/04/12 11:54:10;;;;;;;2.60;0.90;;;13.50;99.90;;;;;;5037020;28;20281;-54
2021/04/12 11:56:47;;;;;;;3.00;1.33;;;12.70;99.90;;;;;;5038235;28;20793;-52
2021/04/12 11:59:35;;;;;;;1.40;0.80;;;12.00;99.90;;;;;;5026188;28;20661;-54
2021/04/12 12:02:21;;;;;;;1.47;0.97;;;11.00;99.90;;;;;;5033881;28;20636;-55
2021/04/12 12:04:55;;;;;;;3.20;1.00;;;10.00;99.90;;;;;;5037971;28;20242;-55
2021/04/12 12:07:36;;;;;;;2.17;1.10;;;9.70;99.90;;;;;;5043511;28;20253;-54
2021/04/12 12:10:24;;;;;;;3.30;1.10;;;10.10;99.90;;;;;;5047060;28;20723;-53
2021/04/12 12:12:59;;;;;;;4.53;1.00;;;10.40;99.90;;;;;;5047638;28;20278;-53
2021/04/12 12:15:38;;;;;;;3.50;1.30;;;10.50;99.90;;;;;;5047790;28;20240;-51
2021/04/12 12:18:13;;;;;;;3.90;1.10;;;10.50;99.90;;;;;;5021503;28;20236;-54
2021/04/12 12:20:49;;;;;;;4.60;1.00;;;10.30;99.90;;;;;;5028352;28;20234;-54
2021/04/12 12:23:46;;;;;;;3.03;1.07;;;10.10;99.90;;;;;;5026688;28;20284;-54
2021/04/12 12:26:26;;;;;;;1.80;0.90;;;10.40;99.90;;;;;;5029593;28;20240;-54
2021/04/12 12:29:08;;;;;;;3.87;1.10;;;10.90;99.90;;;;;;5030642;28;20256;-55
2021/04/12 12:31:50;;;;;;;5.23;1.43;;;10.90;99.90;;;;;;5032453;28;20269;-55
2021/04/12 12:34:37;;;;;;;2.80;0.83;;;11.00;99.90;;;;;;5026959;28;20234;-55
2021/04/12 12:37:15;;;;;;;2.67;0.90;;;11.20;99.90;;;;;;5016112;28;20247;-54
2021/04/12 12:39:46;;;;;;;2.40;0.90;;;11.40;99.90;;;;;;5036530;28;20677;-54
2021/04/12 12:42:24;;;;;;;2.13;0.60;;;11.40;99.90;;;;;;5019099;28;20281;-56
2021/04/12 12:44:55;;;;;;;3.80;0.90;;;11.40;99.90;;;;;;5023826;28;20245;-53
2021/04/12 12:47:25;;;;;;;2.03;0.83;;;11.50;99.90;;;;;;5027723;28;20241;-56
2021/04/12 12:49:58;;;;;;;1.43;0.67;;;11.50;99.90;;;;;;5027445;28;20306;-55
2021/04/12 12:52:40;;;;;;;1.90;0.80;;;11.50;99.90;;;;;;3868120;28;10003083;-55
2021/04/12 12:55:16;;;;;;;2.67;0.73;;;11.50;99.90;;;;;;2770284;28;10001875;-55
2021/04/12 12:57:45;;;;;;;1.80;0.93;;;11.20;99.90;;;;;;5031088;28;20261;-54
2021/04/12 13:00:22;;;;;;;3.53;1.00;;;11.10;99.90;;;;;;5023336;28;20311;-54
2021/04/12 13:02:50;;;;;;;2.03;0.83;;;11.20;99.90;;;;;;5025357;28;20253;-55
2021/04/12 13:05:32;;;;;;;2.97;1.00;;;11.10;99.90;;;;;;5028692;28;20232;-53
2021/04/12 13:08:10;;;;;;;1.50;0.73;;;11.10;99.90;;;;;;5028531;28;20250;-55
2021/04/12 13:10:41;;;;;;;2.90;0.77;;;10.90;99.90;;;;;;5024019;28;20237;-55
2021/04/12 13:13:22;;;;;;;2.97;1.03;;;11.00;99.90;;;;;;5026594;28;20270;-54
2021/04/12 13:15:51;;;;;;;4.50;1.20;;;11.10;99.90;;;;;;5034443;28;20237;-53
2021/04/12 13:18:33;;;;;;;2.63;0.90;;;10.60;99.90;;;;;;5027821;28;20235;-53
2021/04/12 13:21:12;;;;;;;1.97;0.93;;;10.30;99.90;;;;;;5027365;28;20486;-54
2021/04/12 13:24:08;;;;;;;3.73;1.07;;;10.30;99.90;;;;;;5025576;28;20238;-52
2021/04/12 13:26:40;;;;;;;4.93;1.00;;;10.30;99.90;;;;;;5022633;28;20240;-53
2021/04/12 13:29:16;;;;;;;4.43;1.53;;;9.90;99.90;;;;;;5027159;28;20683;-55
2021/04/12 13:31:48;;;;;;;4.23;1.67;;;9.60;99.90;;;;;;5023000;28;20237;-52
2021/04/12 13:34:21;;;;;;;3.57;1.30;;;9.70;99.90;;;;;;5029323;28;20239;-54
2021/04/12 13:36:54;;;;;;;2.60;0.73;;;10.00;99.90;;;;;;5030651;28;20295;-54
2021/04/12 13:39:41;;;;;;;4.67;1.10;;;9.90;99.90;;;;;;5031576;28;20240;-55
2021/04/12 13:42:32;;;;;;;3.37;0.90;;;9.80;99.90;;;;;;5026527;28;20630;-53
2021/04/12 13:45:05;;;;;;;3.43;1.00;;;9.80;99.90;;;;;;5030343;28;20234;-55
2021/04/12 13:47:42;;;;;;;2.20;1.10;;;9.80;99.90;;;;;;5031635;28;20232;-53
2021/04/12 13:50:17;;;;;;;2.70;1.10;;;9.50;99.90;;;;;;5036616;28;20260;-51
2021/04/12 13:52:50;;;;;;;3.07;1.00;;;9.10;99.90;;;;;;5028319;28;20248;-54
2021/04/12 13:55:25;;;;;;;2.70;1.13;;;8.80;99.90;;;;;;5044091;28;20332;-53
2021/04/12 13:57:56;;;;;;;4.00;1.00;;;8.90;99.90;;;;;;5045891;28;20290;-56
2021/04/12 14:00:29;;;;;;;3.10;1.20;;;9.00;99.90;;;;;;5031784;28;20232;-52
2021/04/12 14:03:01;;;;;;;5.63;2.20;;;9.30;99.90;;;;;;5027911;28;20323;-55
2021/04/12 14:05:35;;;;;;;5.27;1.40;;;9.40;99.90;;;;;;5030969;28;20286;-55
2021/04/12 14:08:18;;;;;;;2.07;0.90;;;9.40;99.90;;;;;;5028075;28;20775;-55
2021/04/12 14:10:56;;;;;;;3.87;1.20;;;9.50;99.90;;;;;;5027398;28;20760;-54
2021/04/12 14:13:27;;;;;;;2.93;0.87;;;9.30;99.90;;;;;;5025481;28;20237;-56
2021/04/12 14:16:03;;;;;;;1.93;0.90;;;9.10;99.90;;;;;;5026054;28;20685;-51
2021/04/12 14:18:39;;;;;;;2.80;0.70;;;9.00;99.90;;;;;;5027635;28;20318;-54
2021/04/12 14:21:19;;;;;;;1.50;0.70;;;8.60;99.90;;;;;;5040955;28;20231;-55
2021/04/12 14:23:59;;;;;;;2.20;0.87;;;8.40;99.90;;;;;;5029531;28;20650;-54
2021/04/12 14:26:31;;;;;;;2.00;0.77;;;8.50;99.90;;;;;;5025310;28;20776;-56
2021/04/12 14:29:04;;;;;;;1.80;1.00;;;8.50;99.90;;;;;;5024361;28;20353;-54
2021/04/12 14:31:36;;;;;;;0.90;0.80;;;8.50;99.90;;;;;;5022483;28;20525;-55
2021/04/12 14:34:24;;;;;;;3.73;0.90;;;8.40;99.90;;;;;;5025574;28;20256;-54
2021/04/12 14:36:52;;;;;;;2.40;0.70;;;8.40;99.90;;;;;;5019612;28;20252;-56
2021/04/12 14:39:28;;;;;;;2.10;0.90;;;8.50;99.90;;;;;;5010246;28;20226;-52
2021/04/12 14:41:58;;;;;;;2.30;0.90;;;8.20;99.90;;;;;;5020119;28;21772;-51
2021/04/12 14:44:34;;;;;;;2.27;0.70;;;8.30;99.90;;;;;;5026102;28;20294;-50
2021/04/12 14:47:13;;;;;;;2.03;0.73;;;8.30;99.90;;;;;;5022655;28;20635;-55
2021/04/12 14:49:46;;;;;;;5.03;1.20;;;8.30;99.90;;;;;;5024585;28;20231;-53
2021/04/12 14:52:37;;;;;;;1.40;0.73;;;8.10;99.90;;;;;;5023235;28;20322;-55
2021/04/12 14:55:12;;;;;;;1.97;0.60;;;8.10;99.90;;;;;;5025211;28;20233;-54
2021/04/12 14:57:42;;;;;;;3.10;1.00;;;7.90;99.90;;;;;;5023491;28;20282;-54
2021/04/12 15:00:18;;;;;;;3.50;1.73;;;8.10;99.90;;;;;;5023949;28;20236;-57
2021/04/12 15:02:51;;;;;;;0.60;0.60;;;8.20;99.90;;;;;;5022611;28;20332;-56
2021/04/12 15:05:23;;;;;;;2.07;0.90;;;8.30;99.90;;;;;;5029031;28;20351;-56
2021/04/12 15:07:54;;;;;;;3.83;0.80;;;8.30;99.90;;;;;;5022058;28;20271;-55
2021/04/12 15:10:32;;;;;;;1.33;0.60;;;8.30;99.90;;;;;;5019172;28;20886;-52
2021/04/12 15:13:05;;;;;;;0.70;0.53;;;8.20;99.90;;;;;;5023924;28;20627;-56
2021/04/12 15:15:36;;;;;;;1.37;0.43;;;8.10;99.90;;;;;;5024846;28;20754;-52